Terminal Aerodrome Forecast
Issued by NWS

Home | Current Version | Previous Version | Text Only | Print | Product List | Glossary Off
Versions: 1 2 3 4 5 6 7 8 9 10 11 12 13

000
FTUS43 KICT 231100
TAFSLN
TAF
KSLN 231135Z 2312/2412 VRB05KT 4SM RA SCT050 OVC080
      TEMPO 2312/2314 6SM -RA
     FM231400 17009KT 6SM -RA SCT050 OVC080
     FM231700 17017G25KT P6SM VCSH SCT060 OVC120
     FM240100 16013KT P6SM SCT100=

USA.gov is the U.S. government's official web portal to all federal, state and local government web resources and services.